Singer Island, Florida
Current Conditions -  °F | °C
As of 11:53 PM on Saturday 25 Oct 2014 (Local Time) from KPBI Reporting Station
Few Clouds Few Clouds  
Wind Chill: 20°   Ceiling: Unl
Heat Index: 20°   Visibility: 10mi
Dew Point: 18°   Wind: 7mph
Humidity: 87%   Direction: 300°WNW
Pressure: 29.93"   Gusts: NA
Location:  26.7789°N, 80.0745°W
Report Text: KPBI 260353Z 30006KT 10SM FEW040 20/18 A2993 RMK AO2 SLP135 T02000178
Loading
Personal Weather Stations






























Interactive Weather Map
Tropical Storm Tracking
New forecast layout! Learn more

10-Day Weather Forecast

Advertisements
Track Severe Weather on mobile